Time;durP1;ratioP1;P1;durP2;ratioP2;P2;SDS_P1;SDS_P2;PMS_P1;PMS_P2;Temp;Humidity;BMP_temperature;BMP_pressure;BME280_temperature;BME280_humidity;BME280_pressure;Samples;Min_cycle;Max_cycle;Signal;HPM_P1;HPM_P2
2024/02/15 00:01:14;;;;;;;4.20;2.40;;;;;;;3.65;84.17;99926.29;106838;1267;73044;-40
2024/02/15 00:03:41;;;;;;;4.50;2.30;;;;;;;3.70;84.34;99928.33;106883;1264;66099;-40
2024/02/15 00:06:09;;;;;;;6.10;2.60;;;;;;;3.73;84.67;99934.69;106845;1263;71367;-40
2024/02/15 00:08:36;;;;;;;4.80;2.60;;;;;;;3.73;84.57;99938.06;106837;1264;60317;-40
2024/02/15 00:11:04;;;;;;;5.00;2.90;;;;;;;3.69;84.24;99936.00;106844;1264;60016;-40
2024/02/15 00:13:33;;;;;;;5.50;2.90;;;;;;;3.66;84.21;99938.73;106843;1264;73515;-40
2024/02/15 00:16:01;;;;;;;5.50;2.70;;;;;;;3.67;84.21;99939.99;106849;1268;68813;-40
2024/02/15 00:18:30;;;;;;;4.00;2.30;;;;;;;3.68;84.21;99937.66;106895;1263;72674;-40
2024/02/15 00:20:59;;;;;;;6.30;2.60;;;;;;;3.71;84.38;99941.36;106821;1264;60028;-40
2024/02/15 00:23:27;;;;;;;4.50;2.50;;;;;;;3.69;84.38;99940.52;106889;1263;60057;-40
2024/02/15 00:25:55;;;;;;;4.10;2.40;;;;;;;3.65;84.19;99942.48;106060;1263;1003380;-39
2024/02/15 00:28:23;;;;;;;4.90;2.30;;;;;;;3.67;84.26;99938.04;106857;1264;67018;-40
2024/02/15 00:30:51;;;;;;;4.70;2.20;;;;;;;3.71;83.89;99940.23;106829;1266;72478;-40
2024/02/15 00:33:19;;;;;;;4.40;2.30;;;;;;;3.68;83.88;99938.20;106824;1264;59359;-40
2024/02/15 00:35:51;;;;;;;5.90;2.60;;;;;;;3.65;84.19;99942.75;106850;1264;59489;-39
2024/02/15 00:38:19;;;;;;;3.70;2.40;;;;;;;3.64;84.32;99944.42;106821;1264;71752;-40
2024/02/15 00:40:47;;;;;;;4.00;2.50;;;;;;;3.68;83.97;99943.34;106817;1264;67171;-40
2024/02/15 00:43:14;;;;;;;3.40;2.30;;;;;;;3.72;83.81;99946.86;106816;1264;72194;-40
2024/02/15 00:45:42;;;;;;;3.60;2.40;;;;;;;3.70;83.97;99945.61;106808;1264;60095;-39
2024/02/15 00:48:09;;;;;;;6.30;2.70;;;;;;;3.67;84.00;99942.17;106885;1264;60093;-40
2024/02/15 00:50:38;;;;;;;5.60;2.80;;;;;;;3.64;83.89;99940.61;106845;1263;71786;-40
2024/02/15 00:53:05;;;;;;;5.00;2.60;;;;;;;3.67;83.75;99940.52;106800;1264;67151;-40
2024/02/15 00:55:33;;;;;;;4.90;2.50;;;;;;;3.69;83.61;99942.61;106736;1264;72778;-40
2024/02/15 00:58:00;;;;;;;5.00;2.40;;;;;;;3.69;83.98;99943.80;106749;1264;59541;-40
2024/02/15 01:00:28;;;;;;;4.90;2.60;;;;;;;3.73;84.13;99943.30;106777;1264;60144;-40
2024/02/15 01:02:55;;;;;;;5.80;3.00;;;;;;;3.73;84.11;99947.25;106765;1267;71804;-40
2024/02/15 01:05:24;;;;;;;5.30;2.80;;;;;;;3.79;83.86;99946.33;106771;1263;68366;-40
2024/02/15 01:07:51;;;;;;;5.20;2.70;;;;;;;3.84;83.69;99948.53;106844;1264;72412;-39
2024/02/15 01:10:19;;;;;;;4.30;2.90;;;;;;;3.85;83.70;99948.08;106834;1264;59637;-40
2024/02/15 01:12:49;;;;;;;4.60;2.70;;;;;;;3.85;83.63;99945.93;106843;1263;59756;-40
2024/02/15 01:15:18;;;;;;;5.40;2.60;;;;;;;3.79;83.35;99943.80;106935;1264;73091;-40
2024/02/15 01:17:46;;;;;;;3.70;2.70;;;;;;;3.73;83.30;99945.49;106857;1263;68566;-39
2024/02/15 01:20:15;;;;;;;3.50;2.30;;;;;;;3.71;83.10;99947.45;106845;1264;72675;-40
2024/02/15 01:22:44;;;;;;;3.70;2.40;;;;;;;3.72;83.14;99947.05;106920;1264;60038;-40
2024/02/15 01:25:12;;;;;;;3.80;2.30;;;;;;;3.74;83.34;99948.04;106860;1269;59494;-39
2024/02/15 01:27:39;;;;;;;3.70;2.30;;;;;;;3.73;83.34;99946.23;106849;1264;73010;-39
2024/02/15 01:30:08;;;;;;;5.60;2.70;;;;;;;3.70;83.24;99948.44;106827;1269;67118;-40
2024/02/15 01:32:36;;;;;;;4.30;2.20;;;;;;;3.66;83.32;99946.48;106851;1263;73028;-40
2024/02/15 01:35:05;;;;;;;4.70;2.70;;;;;;;3.65;83.18;99946.23;106850;1269;59752;-40
2024/02/15 01:37:32;;;;;;;3.40;2.30;;;;;;;3.65;83.17;99945.01;106793;1264;60094;-39
2024/02/15 01:40:00;;;;;;;5.30;3.50;;;;;;;3.64;83.19;99947.55;106712;1264;73595;-40
2024/02/15 01:42:27;;;;;;;4.80;3.00;;;;;;;3.58;83.21;99949.45;106704;1264;67732;-40
2024/02/15 01:44:55;;;;;;;7.40;3.20;;;;;;;3.55;83.66;99951.64;106722;1269;72826;-39
2024/02/15 01:47:22;;;;;;;4.80;3.20;;;;;;;3.52;83.84;99951.60;106764;1268;60290;-40
2024/02/15 01:49:50;;;;;;;3.60;2.40;;;;;;;3.56;83.67;99955.10;107540;1254;60048;-40
2024/02/15 01:52:18;;;;;;;5.20;2.60;;;;;;;3.56;83.31;99954.25;107300;1252;73234;-40
2024/02/15 01:54:45;;;;;;;10.00;2.70;;;;;;;3.51;83.48;99955.32;107575;1256;68685;-39
2024/02/15 01:57:13;;;;;;;6.70;2.60;;;;;;;3.44;83.75;99953.20;107646;1255;72441;-40
2024/02/15 01:59:41;;;;;;;4.50;2.90;;;;;;;3.37;83.83;99953.55;107619;1254;60792;-40
2024/02/15 02:02:11;;;;;;;3.10;2.40;;;;;;;3.36;84.06;99954.10;107522;1255;59493;-39
2024/02/15 02:04:38;;;;;;;4.00;2.80;;;;;;;3.37;83.99;99950.39;107751;1251;71769;-40
2024/02/15 02:07:06;;;;;;;5.40;2.90;;;;;;;3.35;84.15;99952.08;107541;1251;66935;-40
2024/02/15 02:09:33;;;;;;;4.80;2.60;;;;;;;3.33;84.48;99953.36;107638;1257;71332;-39
2024/02/15 02:12:01;;;;;;;4.50;3.10;;;;;;;3.30;84.64;99949.56;107604;1252;59654;-39
2024/02/15 02:14:29;;;;;;;4.50;2.60;;;;;;;3.31;84.70;99951.56;107675;1251;59636;-40
2024/02/15 02:17:10;;;;;;;7.60;3.60;;;;;;;3.36;84.69;99948.85;107660;1251;73108;-40
2024/02/15 02:19:38;;;;;;;4.90;2.70;;;;;;;3.39;84.68;99952.48;107524;1257;71444;-40
2024/02/15 02:22:09;;;;;;;4.70;2.90;;;;;;;3.38;84.72;99951.08;107695;1254;71212;-40
2024/02/15 02:24:45;;;;;;;3.80;2.60;;;;;;;3.33;84.56;99956.35;107539;1252;59665;-40
2024/02/15 02:27:13;;;;;;;5.40;2.50;;;;;;;3.31;84.43;99953.77;107679;1254;59650;-39
2024/02/15 02:29:47;;;;;;;4.60;2.60;;;;;;;3.32;84.56;99956.33;107387;1260;71582;-39
2024/02/15 02:32:15;;;;;;;5.60;2.70;;;;;;;3.32;84.60;99956.42;107692;1257;67462;-40
2024/02/15 02:34:42;;;;;;;5.50;2.90;;;;;;;3.30;84.75;99954.41;107659;1257;72913;-41
2024/02/15 02:37:10;;;;;;;5.40;2.30;;;;;;;3.27;84.74;99958.08;107669;1257;60986;-40
2024/02/15 02:39:37;;;;;;;4.10;2.40;;;;;;;3.26;84.50;99958.58;107728;1251;59396;-40
2024/02/15 02:42:06;;;;;;;4.70;2.60;;;;;;;3.27;84.60;99960.44;107667;1252;73069;-41
2024/02/15 02:44:34;;;;;;;4.60;2.70;;;;;;;3.25;84.61;99963.20;107675;1260;68310;-40
2024/02/15 02:47:01;;;;;;;5.10;2.60;;;;;;;3.20;84.82;99965.70;107532;1259;72665;-40
2024/02/15 02:49:29;;;;;;;4.90;2.40;;;;;;;3.15;85.07;99965.19;107668;1254;59797;-41
2024/02/15 02:51:57;;;;;;;7.90;3.20;;;;;;;3.18;85.26;99968.64;107553;1257;59180;-41
2024/02/15 02:54:24;;;;;;;4.10;2.60;;;;;;;3.24;85.26;99969.88;107616;1251;72974;-40
2024/02/15 02:56:52;;;;;;;4.30;2.50;;;;;;;3.29;85.29;99973.54;107660;1251;67557;-40
2024/02/15 02:59:19;;;;;;;5.50;2.80;;;;;;;3.28;85.29;99977.24;107666;1254;71914;-41
2024/02/15 03:01:47;;;;;;;4.00;2.50;;;;;;;3.22;85.13;99979.97;107600;1257;59632;-41
2024/02/15 03:04:16;;;;;;;3.50;2.30;;;;;;;3.19;85.42;99981.39;107750;1257;59965;-40
2024/02/15 03:06:44;;;;;;;4.50;2.60;;;;;;;3.20;85.11;99983.55;107664;1257;73064;-41
2024/02/15 03:09:15;;;;;;;3.30;2.50;;;;;;;3.22;85.01;99986.14;107696;1251;67698;-41
2024/02/15 03:11:42;;;;;;;4.40;2.80;;;;;;;3.24;85.11;99984.89;107733;1256;72685;-40
2024/02/15 03:14:11;;;;;;;5.40;3.00;;;;;;;3.23;85.31;99987.20;107675;1254;60530;-38
2024/02/15 03:16:39;;;;;;;3.20;2.00;;;;;;;3.22;85.43;99988.55;107758;1256;60275;-40
2024/02/15 03:19:09;;;;;;;3.20;2.00;;;;;;;3.24;85.34;99996.77;107650;1252;73890;-39
2024/02/15 03:21:36;;;;;;;3.40;2.30;;;;;;;3.27;84.78;99993.88;107699;1251;67378;-39
2024/02/15 03:24:04;;;;;;;4.30;2.40;;;;;;;3.25;84.91;99993.81;107685;1257;71465;-39
2024/02/15 03:26:38;;;;;;;4.80;2.80;;;;;;;3.20;85.01;100003.34;107709;1251;60313;-39
2024/02/15 03:29:07;;;;;;;8.60;2.90;;;;;;;3.19;85.23;100002.21;107682;1252;60057;-40
2024/02/15 03:31:36;;;;;;;4.40;2.60;;;;;;;3.22;85.17;100004.23;107700;1251;72554;-40
2024/02/15 03:34:04;;;;;;;4.00;2.80;;;;;;;3.28;85.01;100008.16;107722;1251;68355;-39
2024/02/15 03:36:32;;;;;;;4.30;2.30;;;;;;;3.30;84.97;100010.05;107706;1251;71428;-39
2024/02/15 03:39:00;;;;;;;4.40;2.80;;;;;;;3.27;84.96;100010.39;107667;1251;60415;-39
2024/02/15 03:41:32;;;;;;;4.00;2.80;;;;;;;3.21;84.96;100009.84;107720;1256;59581;-39
2024/02/15 03:44:00;;;;;;;3.80;2.40;;;;;;;3.21;85.01;100009.84;107644;1251;72592;-39
2024/02/15 03:46:28;;;;;;;2.50;1.90;;;;;;;3.24;84.88;100014.36;107576;1251;68656;-39
2024/02/15 03:48:57;;;;;;;4.10;2.60;;;;;;;3.23;84.63;100009.02;107558;1251;71421;-39
2024/02/15 03:51:24;;;;;;;3.90;2.70;;;;;;;3.18;84.78;100014.03;107595;1254;60517;-40
2024/02/15 03:53:53;;;;;;;5.00;3.00;;;;;;;3.12;84.84;100014.98;107581;1251;59652;-40
2024/02/15 03:56:21;;;;;;;4.30;2.90;;;;;;;3.09;85.29;100017.56;107569;1257;73872;-39
2024/02/15 03:58:51;;;;;;;7.60;3.30;;;;;;;3.10;85.09;100016.59;107615;1251;68379;-40
2024/02/15 04:01:19;;;;;;;6.90;3.20;;;;;;;3.11;85.28;100017.89;107674;1251;72715;-40
2024/02/15 04:03:47;;;;;;;3.70;2.70;;;;;;;3.12;85.23;100016.97;107580;1254;60469;-39
2024/02/15 04:06:15;;;;;;;6.80;3.50;;;;;;;3.10;85.40;100020.22;107621;1251;60389;-39
2024/02/15 04:08:43;;;;;;;4.90;3.00;;;;;;;3.08;85.60;100017.20;107654;1251;73862;-40
2024/02/15 04:11:11;;;;;;;6.20;3.20;;;;;;;3.08;85.56;100017.36;107667;1251;68383;-39
2024/02/15 04:13:38;;;;;;;4.70;2.90;;;;;;;3.09;85.48;100016.11;107720;1251;72452;-39
2024/02/15 04:16:06;;;;;;;5.10;3.20;;;;;;;3.13;85.60;100018.78;107498;1254;60434;-40
2024/02/15 04:18:33;;;;;;;5.90;3.10;;;;;;;3.18;85.62;100022.56;107642;1251;60275;-40
2024/02/15 04:21:02;;;;;;;6.60;3.30;;;;;;;3.20;85.66;100019.99;107716;1251;73765;-40
2024/02/15 04:23:29;;;;;;;6.80;3.90;;;;;;;3.21;85.68;100022.70;107665;1251;68405;-39
2024/02/15 04:25:59;;;;;;;8.10;3.70;;;;;;;3.14;85.35;100014.25;107629;1251;72422;-40
2024/02/15 04:28:27;;;;;;;7.80;3.40;;;;;;;3.21;85.09;100026.40;107643;1257;60898;-40
2024/02/15 04:30:55;;;;;;;5.00;3.20;;;;;;;3.20;84.81;100026.41;107596;1251;60398;-39
2024/02/15 04:33:22;;;;;;;6.60;3.50;;;;;;;3.16;84.91;100032.91;107607;1251;73774;-40
2024/02/15 04:35:51;;;;;;;6.60;3.80;;;;;;;3.16;85.33;100034.54;107707;1251;68367;-40
2024/02/15 04:38:19;;;;;;;5.00;3.00;;;;;;;3.15;85.35;100035.77;107634;1251;72716;-40
2024/02/15 04:40:47;;;;;;;7.00;3.80;;;;;;;3.19;84.89;100037.70;107665;1251;60319;-40
2024/02/15 04:43:15;;;;;;;6.00;3.30;;;;;;;3.25;84.82;100038.34;107748;1251;60065;-40
2024/02/15 04:45:43;;;;;;;7.50;3.60;;;;;;;3.27;84.97;100036.85;107706;1256;73827;-40
2024/02/15 04:48:13;;;;;;;6.80;3.90;;;;;;;3.29;85.12;100038.92;107708;1256;68406;-39
2024/02/15 04:50:42;;;;;;;8.50;4.50;;;;;;;3.28;85.15;100047.40;107648;1251;71414;-40
2024/02/15 04:53:11;;;;;;;7.30;3.90;;;;;;;3.31;84.89;100048.91;107640;1257;60816;-40
2024/02/15 04:55:38;;;;;;;6.60;3.40;;;;;;;3.37;84.59;100048.90;107606;1251;59997;-40
2024/02/15 04:58:06;;;;;;;6.60;3.30;;;;;;;3.44;84.52;100051.58;107655;1251;73000;-40
2024/02/15 05:00:33;;;;;;;5.70;3.30;;;;;;;3.44;84.20;100048.30;107718;1251;67146;-40
2024/02/15 05:03:01;;;;;;;6.80;3.20;;;;;;;3.40;84.02;100052.38;107676;1257;71409;-40
2024/02/15 05:05:29;;;;;;;6.10;3.40;;;;;;;3.35;83.89;100051.15;107678;1254;60415;-39
2024/02/15 05:07:57;;;;;;;4.80;3.10;;;;;;;3.31;83.78;100054.31;107674;1251;60264;-40
2024/02/15 05:10:25;;;;;;;5.70;3.20;;;;;;;3.32;83.68;100058.32;107671;1251;73832;-40
2024/02/15 05:12:53;;;;;;;7.50;3.60;;;;;;;3.31;83.65;100055.05;107740;1251;68348;-39
2024/02/15 05:15:24;;;;;;;6.20;3.90;;;;;;;3.29;83.75;100057.46;107658;1254;71376;-39
2024/02/15 05:17:53;;;;;;;5.70;3.50;;;;;;;3.26;84.00;100062.64;107633;1251;60042;-40
2024/02/15 05:20:21;;;;;;;7.00;4.20;;;;;;;3.24;84.06;100065.15;107672;1251;60463;-40
2024/02/15 05:22:49;;;;;;;5.80;3.60;;;;;;;3.26;84.02;100068.29;107639;1251;73872;-39
2024/02/15 05:25:22;;;;;;;6.50;3.70;;;;;;;3.30;84.02;100075.06;107671;1251;67396;-40
2024/02/15 05:27:54;;;;;;;6.00;3.70;;;;;;;3.35;83.71;100079.76;107654;1254;72257;-40
2024/02/15 05:30:23;;;;;;;6.00;4.00;;;;;;;3.35;83.68;100079.16;107653;1251;60152;-40
2024/02/15 05:32:52;;;;;;;10.90;4.00;;;;;;;3.34;83.58;100083.39;107698;1251;60334;-39
2024/02/15 05:35:21;;;;;;;7.50;4.10;;;;;;;3.31;83.67;100086.57;107697;1251;72601;-40
2024/02/15 05:37:51;;;;;;;8.80;4.70;;;;;;;3.31;83.68;100087.48;107651;1251;68419;-40
2024/02/15 05:40:19;;;;;;;6.20;3.70;;;;;;;3.34;83.47;100091.20;107547;1251;72634;-39
2024/02/15 05:42:46;;;;;;;7.20;4.60;;;;;;;3.34;83.54;100092.08;107554;1254;60492;-40
2024/02/15 05:45:26;;;;;;;9.20;5.20;;;;;;;3.34;83.78;100097.64;106066;1251;1003598;-40
2024/02/15 05:47:54;;;;;;;;;;;;;;;3.34;83.83;100098.80;107610;1257;72589;-39
2024/02/15 05:50:23;;;;;;;9.10;5.50;;;;;;;3.34;83.97;100101.42;107683;1251;67366;-40
2024/02/15 05:52:54;;;;;;;7.70;4.70;;;;;;;3.36;83.64;100104.40;107664;1251;70409;-40
2024/02/15 05:55:22;;;;;;;6.60;4.00;;;;;;;3.35;83.31;100104.14;107647;1254;60964;-40
2024/02/15 05:57:50;;;;;;;7.60;3.90;;;;;;;3.28;83.24;100108.86;107707;1255;60316;-40
2024/02/15 06:00:18;;;;;;;8.60;4.30;;;;;;;3.22;83.34;100109.02;107647;1251;71628;-40
2024/02/15 06:02:50;;;;;;;7.80;4.40;;;;;;;3.13;83.39;100112.39;107685;1254;68421;-40
2024/02/15 06:05:19;;;;;;;7.40;4.20;;;;;;;3.08;83.65;100112.88;107696;1254;72613;-40
2024/02/15 06:07:47;;;;;;;8.70;4.60;;;;;;;3.10;83.83;100112.53;107649;1254;60552;-40
2024/02/15 06:10:15;;;;;;;8.50;4.80;;;;;;;3.14;83.89;100114.67;107636;1254;60338;-40
2024/02/15 06:12:44;;;;;;;7.20;4.60;;;;;;;3.17;83.90;100116.81;107622;1252;73446;-40
2024/02/15 06:15:14;;;;;;;7.70;4.80;;;;;;;3.18;84.12;100113.44;107617;1254;67444;-40
2024/02/15 06:17:44;;;;;;;8.00;5.60;;;;;;;3.18;84.40;100119.11;107709;1257;73114;-40
2024/02/15 06:20:17;;;;;;;9.20;4.80;;;;;;;3.21;84.62;100117.87;107639;1253;59560;-40
2024/02/15 06:22:46;;;;;;;8.00;4.60;;;;;;;3.25;84.23;100119.31;107632;1253;60526;-39
2024/02/15 06:25:15;;;;;;;6.80;4.30;;;;;;;3.26;83.64;100119.52;107641;1254;73909;-40
2024/02/15 06:27:43;;;;;;;4.90;3.70;;;;;;;3.25;83.75;100120.33;107659;1253;67144;-40
2024/02/15 06:41:19;;;;;;;6.30;4.10;;;;;;;3.28;83.68;100125.58;107636;1254;68514;-40
2024/02/15 06:43:49;;;;;;;5.10;4.00;;;;;;;3.28;83.45;100126.55;107649;1257;72702;-39
2024/02/15 06:46:19;;;;;;;5.90;4.20;;;;;;;3.24;83.54;100123.77;107646;1254;60328;-40
2024/02/15 06:48:46;;;;;;;;;;;;;;;3.21;83.73;100126.02;107682;1253;59343;-40
2024/02/15 06:51:15;;;;;;;5.00;3.70;;;;;;;3.20;83.72;100130.70;107662;1252;72554;-40
2024/02/15 06:53:43;;;;;;;4.30;3.10;;;;;;;3.19;83.64;100133.04;107678;1254;67434;-40
2024/02/15 06:56:11;;;;;;;6.20;4.20;;;;;;;3.21;83.63;100134.65;107666;1253;73236;-40
2024/02/15 06:58:42;;;;;;;6.50;4.70;;;;;;;3.24;83.92;100136.31;107730;1254;60395;-40
2024/02/15 07:01:13;;;;;;;6.50;4.70;;;;;;;3.29;84.05;100143.44;107679;1256;60333;-40
2024/02/15 07:03:41;;;;;;;6.20;4.40;;;;;;;3.28;83.87;100147.14;107563;1253;73862;-39
2024/02/15 07:06:09;;;;;;;5.70;4.30;;;;;;;3.27;83.84;100151.54;107506;1254;67443;-39
2024/02/15 07:08:36;;;;;;;7.40;4.80;;;;;;;3.31;83.45;100154.16;107493;1254;71374;-40
2024/02/15 07:11:04;;;;;;;6.00;4.40;;;;;;;3.33;83.41;100156.02;107491;1254;59700;-40
2024/02/15 07:13:32;;;;;;;6.90;4.70;;;;;;;3.35;83.53;100153.61;107592;1253;60428;-39
2024/02/15 07:15:59;;;;;;;7.90;4.90;;;;;;;3.37;83.66;100152.46;107517;1253;73784;-40
2024/02/15 07:18:27;;;;;;;6.70;5.30;;;;;;;3.39;83.65;100153.44;107541;1254;68680;-40
2024/02/15 07:21:00;;;;;;;7.20;5.10;;;;;;;3.41;83.43;100152.50;107584;1254;72627;-39
2024/02/15 07:23:28;;;;;;;7.00;4.20;;;;;;;3.45;83.28;100154.47;107528;1253;60508;-40
2024/02/15 07:25:56;;;;;;;6.70;4.90;;;;;;;3.46;82.90;100154.14;107473;1259;60325;-40
2024/02/15 07:28:26;;;;;;;6.40;4.70;;;;;;;3.46;83.12;100150.81;107494;1253;73858;-39
2024/02/15 07:30:54;;;;;;;7.20;5.10;;;;;;;3.45;83.17;100146.96;107446;1254;67431;-39
2024/02/15 07:33:23;;;;;;;5.70;3.80;;;;;;;3.43;82.68;100145.19;107483;1254;72693;-40
2024/02/15 07:35:51;;;;;;;6.20;5.00;;;;;;;3.39;82.71;100145.34;107462;1254;60508;-40
2024/02/15 07:38:22;;;;;;;6.30;4.80;;;;;;;3.40;82.68;100142.59;107536;1254;58761;-40
2024/02/15 07:40:50;;;;;;;7.20;5.30;;;;;;;3.44;82.68;100147.09;107635;1254;73878;-39
2024/02/15 07:43:18;;;;;;;7.30;5.00;;;;;;;3.43;82.63;100147.52;107609;1254;68420;-40
2024/02/15 07:45:47;;;;;;;6.40;4.70;;;;;;;3.43;82.80;100149.86;107438;1254;72676;-39
2024/02/15 07:48:16;;;;;;;7.70;4.80;;;;;;;3.43;82.91;100150.66;107481;1253;61011;-40
2024/02/15 07:50:44;;;;;;;9.00;5.30;;;;;;;3.45;82.64;100148.15;107591;1253;60380;-40
2024/02/15 07:53:13;;;;;;;6.10;4.50;;;;;;;3.47;82.37;100149.89;107626;1253;74237;-40
2024/02/15 07:55:42;;;;;;;7.20;4.70;;;;;;;3.48;82.14;100152.88;107633;1254;68663;-39
2024/02/15 07:58:09;;;;;;;7.30;4.80;;;;;;;3.45;82.19;100151.47;107613;1253;71867;-40
2024/02/15 08:00:38;;;;;;;8.00;5.40;;;;;;;3.46;82.69;100155.90;107489;1253;60295;-40
2024/02/15 08:03:07;;;;;;;7.30;5.20;;;;;;;3.49;82.82;100153.55;107586;1253;60331;-39
2024/02/15 08:05:37;;;;;;;8.70;5.00;;;;;;;3.47;82.48;100143.24;107516;1254;73821;-39
2024/02/15 08:08:06;;;;;;;6.20;4.70;;;;;;;3.57;82.15;100154.45;107585;1253;68671;-40
2024/02/15 08:10:33;;;;;;;7.20;5.20;;;;;;;3.59;82.11;100157.02;107671;1253;71340;-40
2024/02/15 08:13:01;;;;;;;8.60;5.90;;;;;;;3.60;82.25;100160.08;107495;1254;60488;-39
2024/02/15 08:15:29;;;;;;;7.00;5.20;;;;;;;3.59;82.18;100161.92;107578;1253;60357;-40
2024/02/15 08:17:56;;;;;;;9.70;5.40;;;;;;;3.54;82.07;100163.45;107494;1253;73082;-40
2024/02/15 08:20:24;;;;;;;7.90;5.20;;;;;;;3.53;82.14;100164.33;107548;1253;67156;-39
2024/02/15 08:22:51;;;;;;;9.10;6.10;;;;;;;3.57;82.37;100166.30;107557;1254;71774;-39
2024/02/15 08:25:19;;;;;;;8.20;6.30;;;;;;;3.63;82.51;100169.20;107575;1254;60533;-40
2024/02/15 08:27:49;;;;;;;10.30;6.50;;;;;;;3.67;82.42;100171.28;107609;1253;60409;-40
2024/02/15 08:30:19;;;;;;;8.90;5.70;;;;;;;3.68;82.12;100169.48;107580;1253;73765;-39
2024/02/15 08:32:54;;;;;;;8.00;5.70;;;;;;;3.69;82.12;100171.56;107590;1253;68983;-40
2024/02/15 08:35:22;;;;;;;8.50;6.00;;;;;;;3.73;82.10;100171.23;107605;1253;71874;-40
2024/02/15 08:37:52;;;;;;;9.40;6.30;;;;;;;3.78;81.94;100175.96;107539;1253;60848;-40
2024/02/15 08:40:25;;;;;;;8.00;6.10;;;;;;;3.84;81.78;100181.44;107537;1254;60351;-40
2024/02/15 08:42:53;;;;;;;11.00;6.40;;;;;;;3.85;81.69;100182.93;107533;1253;73778;-40
2024/02/15 08:45:21;;;;;;;10.40;6.60;;;;;;;3.86;81.92;100188.05;107537;1254;68476;-40
2024/02/15 08:47:52;;;;;;;10.20;6.70;;;;;;;3.88;81.70;100189.83;107570;1254;72753;-40
2024/02/15 08:50:23;;;;;;;8.70;5.80;;;;;;;3.87;81.41;100185.89;107551;1254;60374;-40
2024/02/15 08:52:51;;;;;;;6.30;5.20;;;;;;;3.89;81.19;100184.89;107563;1254;60399;-40
2024/02/15 08:55:23;;;;;;;9.70;6.40;;;;;;;3.92;81.04;100185.23;107433;1253;73986;-40
2024/02/15 08:57:51;;;;;;;6.80;5.40;;;;;;;3.93;81.13;100187.61;107453;1253;68995;-40
2024/02/15 09:00:19;;;;;;;7.70;5.60;;;;;;;3.92;81.13;100190.25;107433;1258;72799;-40
2024/02/15 09:02:48;;;;;;;8.00;5.50;;;;;;;3.91;80.92;100195.65;107432;1257;60511;-40
2024/02/15 09:05:18;;;;;;;8.90;5.40;;;;;;;3.97;80.94;100201.61;107666;1254;60462;-40
2024/02/15 09:07:50;;;;;;;10.50;6.50;;;;;;;4.05;80.43;100206.84;107667;1254;73877;-40
2024/02/15 09:10:18;;;;;;;7.60;6.00;;;;;;;4.04;80.23;100205.63;107668;1253;67028;-40
2024/02/15 09:12:49;;;;;;;8.90;6.00;;;;;;;4.00;80.29;100208.80;107662;1254;72784;-40
2024/02/15 09:15:17;;;;;;;7.80;5.70;;;;;;;3.99;80.41;100211.92;107611;1254;60099;-40
2024/02/15 09:17:46;;;;;;;10.20;6.00;;;;;;;3.99;80.41;100207.38;107603;1254;61074;-40
2024/02/15 09:20:18;;;;;;;9.20;5.70;;;;;;;4.00;80.43;100210.84;107659;1254;72721;-40
2024/02/15 09:22:54;;;;;;;9.40;5.80;;;;;;;4.05;80.37;100213.21;107541;1254;67301;-40
2024/02/15 09:25:25;;;;;;;9.40;6.50;;;;;;;4.13;80.28;100211.30;107566;1254;72743;-40
2024/02/15 09:27:53;;;;;;;11.30;6.70;;;;;;;4.13;80.33;100212.75;107466;1254;60485;-40
2024/02/15 09:30:24;;;;;;;8.90;6.20;;;;;;;4.10;80.22;100212.11;107465;1254;60521;-40
2024/02/15 09:32:52;;;;;;;8.20;6.40;;;;;;;4.04;80.04;100211.23;107515;1253;72670;-40
2024/02/15 09:35:20;;;;;;;8.40;5.80;;;;;;;4.03;80.13;100213.24;107481;1254;68303;-40
2024/02/15 09:37:49;;;;;;;7.40;4.80;;;;;;;4.04;80.00;100212.96;107487;1254;71492;-40
2024/02/15 09:40:17;;;;;;;10.00;5.80;;;;;;;4.02;79.79;100215.20;107570;1253;60300;-40
2024/02/15 09:42:47;;;;;;;9.10;5.60;;;;;;;3.99;80.02;100213.85;107571;1257;60446;-40
2024/02/15 09:45:16;;;;;;;8.20;6.30;;;;;;;3.94;80.24;100213.98;107570;1254;73953;-40
2024/02/15 09:47:44;;;;;;;11.80;6.50;;;;;;;3.94;80.35;100214.52;107517;1254;68340;-40
2024/02/15 09:50:16;;;;;;;9.30;6.20;;;;;;;3.95;80.52;100215.38;107527;1254;71483;-41
2024/02/15 09:52:51;;;;;;;9.30;6.10;;;;;;;3.95;80.30;100214.79;107506;1254;62841;-40
2024/02/15 09:55:22;;;;;;;10.50;6.10;;;;;;;3.96;80.55;100213.21;107507;1256;59388;-40
2024/02/15 09:57:51;;;;;;;9.30;6.40;;;;;;;4.02;80.46;100208.98;107528;1254;73093;-40
2024/02/15 10:00:20;;;;;;;9.60;5.80;;;;;;;4.07;80.52;100207.27;107470;1254;68978;-40
2024/02/15 10:02:50;;;;;;;8.50;6.50;;;;;;;4.12;80.40;100210.56;107478;1259;72724;-39
2024/02/15 10:05:18;;;;;;;10.60;6.90;;;;;;;4.12;80.02;100207.95;107481;1254;60374;-39
2024/02/15 10:07:46;;;;;;;11.40;7.30;;;;;;;4.09;80.32;100207.41;107517;1259;60299;-40
2024/02/15 10:10:21;;;;;;;10.50;7.70;;;;;;;4.12;80.69;100203.65;107388;1253;73550;-40
2024/02/15 10:12:54;;;;;;;10.80;6.70;;;;;;;4.20;80.68;100202.59;107399;1254;69749;-40
2024/02/15 10:15:30;;;;;;;10.10;6.80;;;;;;;4.25;80.46;100199.43;107367;1259;71485;-40
2024/02/15 10:18:08;;;;;;;8.30;6.30;;;;;;;4.31;80.40;100196.48;107391;1254;60187;-40
2024/02/15 10:20:39;;;;;;;9.80;6.60;;;;;;;4.33;80.07;100195.27;107544;1253;60354;-40
2024/02/15 10:23:08;;;;;;;11.80;7.20;;;;;;;4.31;80.13;100195.83;107602;1254;74010;-39
2024/02/15 10:25:37;;;;;;;;;;;;;;;4.29;79.98;100197.21;107555;1254;69000;-40
2024/02/15 10:28:08;;;;;;;9.60;6.60;;;;;;;4.24;79.71;100199.83;107480;1253;72739;-40
2024/02/15 10:30:38;;;;;;;10.40;6.70;;;;;;;4.19;79.83;100199.48;107493;1254;61010;-40
2024/02/15 10:33:07;;;;;;;8.30;5.10;;;;;;;4.20;79.78;100197.98;107472;1256;60335;-40
2024/02/15 10:35:36;;;;;;;10.30;7.50;;;;;;;4.20;79.84;100196.69;107513;1254;72678;-40
2024/02/15 10:38:09;;;;;;;12.10;7.30;;;;;;;4.21;80.19;100195.72;107493;1254;69201;-40
2024/02/15 10:40:37;;;;;;;11.10;6.60;;;;;;;4.21;80.02;100196.25;107549;1258;71504;-40
2024/02/15 10:43:05;;;;;;;8.20;6.70;;;;;;;4.19;79.99;100190.27;107594;1253;61002;-40
2024/02/15 10:45:36;;;;;;;11.10;7.10;;;;;;;4.20;79.93;100188.85;107515;1254;60412;-40
2024/02/15 10:48:08;;;;;;;10.40;6.50;;;;;;;4.26;80.07;100188.41;107513;1254;71884;-40
2024/02/15 10:50:36;;;;;;;9.90;6.50;;;;;;;4.35;79.81;100191.77;107570;1257;67628;-40
2024/02/15 10:53:22;;;;;;;10.50;6.80;;;;;;;4.38;79.85;100193.55;107447;1252;72851;-40
2024/02/15 10:55:57;;;;;;;10.90;6.50;;;;;;;4.36;79.61;100195.15;107572;1252;60411;-40
2024/02/15 10:58:26;;;;;;;9.20;6.60;;;;;;;4.32;79.60;100195.64;107535;1253;60427;-40
2024/02/15 11:00:53;;;;;;;9.40;6.70;;;;;;;4.31;79.73;100196.40;107546;1252;73956;-40
2024/02/15 11:03:25;;;;;;;8.00;5.80;;;;;;;4.41;79.74;100196.93;107668;1254;68581;-40
2024/02/15 11:05:55;;;;;;;9.10;6.30;;;;;;;4.48;79.65;100196.05;107613;1254;71444;-40
2024/02/15 11:08:23;;;;;;;7.40;5.00;;;;;;;4.49;79.47;100202.97;107497;1253;60397;-40
2024/02/15 11:10:51;;;;;;;12.30;7.20;;;;;;;4.47;79.46;100202.78;107515;1253;60633;-40
2024/02/15 11:13:18;;;;;;;10.60;6.80;;;;;;;4.45;79.29;100201.38;107520;1254;72281;-40
2024/02/15 11:15:49;;;;;;;11.70;7.00;;;;;;;4.46;79.32;100204.93;107547;1253;67322;-40
2024/02/15 11:18:55;;;;;;;9.20;6.30;;;;;;;4.49;79.20;100203.88;107448;1254;168038;-40
2024/02/15 11:22:22;;;;;;;11.30;6.30;;;;;;;4.55;79.12;100196.77;104176;1292;601082;-40
2024/02/15 11:24:51;;;;;;;6.90;5.30;;;;;;;4.51;78.74;100201.67;106617;1269;59127;-40
2024/02/15 11:27:29;;;;;;;9.80;6.40;;;;;;;4.46;78.77;100207.30;106677;1267;59296;-40
2024/02/15 11:30:09;;;;;;;10.00;6.70;;;;;;;4.41;78.83;100211.23;106632;1267;72385;-40
2024/02/15 11:32:47;;;;;;;8.60;6.20;;;;;;;4.41;79.06;100209.82;106599;1267;67881;-40
2024/02/15 11:35:29;;;;;;;9.40;5.90;;;;;;;4.42;79.04;100211.63;106529;1264;177460;-40
2024/02/15 11:37:58;;;;;;;9.40;6.50;;;;;;;4.45;79.07;100214.48;106741;1271;59256;-40
2024/02/15 11:40:42;;;;;;;11.20;6.70;;;;;;;4.47;78.99;100213.98;106806;1264;60147;-40
2024/02/15 11:43:32;;;;;;;9.90;6.40;;;;;;;4.43;78.93;100214.23;106669;1264;71061;-40
2024/02/15 11:46:03;;;;;;;10.80;7.00;;;;;;;4.39;79.20;100216.03;106594;1267;69050;-40
2024/02/15 11:48:31;;;;;;;8.30;6.40;;;;;;;4.37;79.25;100212.09;106486;1268;71507;-40